Westbend, Kentucky
Current Conditions -  °F | °C
As of 8:55 AM on Saturday 22 Nov 2014 (Local Time) from KIOB Reporting Station
Overcast Overcast  
Wind Chill: 41°   Ceiling: 9500
Heat Index: 46°   Visibility: 10mi
Dew Point: 27°   Wind: 12mph
Humidity: 46%   Direction: 220°SW
Pressure: 30.34"   Gusts: 16mph
Location:  37.8453°N, 83.9222°W
Report Text: KIOB 221355Z AUTO 22010G14KT 10SM OVC095 08/M03 A3034 RMK AO2
Loading
Personal Weather Stations






























Interactive Weather Map New forecast layout! Learn more

10-Day Weather Forecast

Advertisements
Track Severe Weather on mobile